sensor_id;sensor_type;location;lat;lon;timestamp;P1;durP1;ratioP1;P2;durP2;ratioP2
77466;SDS011;66564;42.482;25.548;2023-04-08T00:01:09;44.13;;;19.83;;
77466;SDS011;66564;42.482;25.548;2023-04-08T00:03:35;35.33;;;19.92;;
77466;SDS011;66564;42.482;25.548;2023-04-08T00:06:00;39.38;;;20.02;;
77466;SDS011;66564;42.482;25.548;2023-04-08T00:08:28;39.15;;;19.55;;
77466;SDS011;66564;42.482;25.548;2023-04-08T00:10:54;38.40;;;19.25;;
77466;SDS011;66564;42.482;25.548;2023-04-08T00:13:20;42.10;;;20.70;;
77466;SDS011;66564;42.482;25.548;2023-04-08T00:15:45;42.97;;;21.25;;
77466;SDS011;66564;42.482;25.548;2023-04-08T00:18:12;39.53;;;20.27;;
77466;SDS011;66564;42.482;25.548;2023-04-08T00:20:39;40.17;;;22.25;;
77466;SDS011;66564;42.482;25.548;2023-04-08T00:23:07;34.47;;;17.80;;
77466;SDS011;66564;42.482;25.548;2023-04-08T00:25:32;40.60;;;21.17;;
77466;SDS011;66564;42.482;25.548;2023-04-08T00:27:58;38.78;;;18.85;;
77466;SDS011;66564;42.482;25.548;2023-04-08T00:30:23;39.15;;;20.20;;
77466;SDS011;66564;42.482;25.548;2023-04-08T00:32:51;35.92;;;18.90;;
77466;SDS011;66564;42.482;25.548;2023-04-08T00:35:16;38.22;;;18.98;;
77466;SDS011;66564;42.482;25.548;2023-04-08T00:37:42;36.28;;;19.13;;
77466;SDS011;66564;42.482;25.548;2023-04-08T00:40:08;36.15;;;19.77;;
77466;SDS011;66564;42.482;25.548;2023-04-08T00:42:35;36.65;;;18.30;;
77466;SDS011;66564;42.482;25.548;2023-04-08T00:45:00;41.90;;;20.55;;
77466;SDS011;66564;42.482;25.548;2023-04-08T00:47:26;36.92;;;18.17;;
77466;SDS011;66564;42.482;25.548;2023-04-08T00:49:51;40.25;;;19.73;;
77466;SDS011;66564;42.482;25.548;2023-04-08T00:52:17;40.30;;;20.00;;
77466;SDS011;66564;42.482;25.548;2023-04-08T00:54:42;36.42;;;18.80;;
77466;SDS011;66564;42.482;25.548;2023-04-08T00:57:08;41.25;;;18.50;;
77466;SDS011;66564;42.482;25.548;2023-04-08T00:59:34;44.67;;;21.33;;
77466;SDS011;66564;42.482;25.548;2023-04-08T01:07:30;37.33;;;20.08;;
77466;SDS011;66564;42.482;25.548;2023-04-08T01:10:05;40.85;;;20.27;;
77466;SDS011;66564;42.482;25.548;2023-04-08T01:12:39;41.88;;;21.27;;
77466;SDS011;66564;42.482;25.548;2023-04-08T01:15:08;41.95;;;20.90;;
77466;SDS011;66564;42.482;25.548;2023-04-08T01:17:36;45.10;;;20.50;;
77466;SDS011;66564;42.482;25.548;2023-04-08T01:20:03;43.38;;;21.52;;
77466;SDS011;66564;42.482;25.548;2023-04-08T01:25:16;39.63;;;19.83;;
77466;SDS011;66564;42.482;25.548;2023-04-08T01:27:49;43.90;;;20.60;;
77466;SDS011;66564;42.482;25.548;2023-04-08T01:30:17;39.50;;;21.13;;
77466;SDS011;66564;42.482;25.548;2023-04-08T01:32:45;41.03;;;20.73;;
77466;SDS011;66564;42.482;25.548;2023-04-08T01:35:11;41.15;;;20.30;;
77466;SDS011;66564;42.482;25.548;2023-04-08T01:37:37;38.72;;;19.88;;
77466;SDS011;66564;42.482;25.548;2023-04-08T01:40:04;49.95;;;21.83;;
77466;SDS011;66564;42.482;25.548;2023-04-08T01:42:33;50.13;;;21.70;;
77466;SDS011;66564;42.482;25.548;2023-04-08T01:45:00;43.90;;;21.10;;
77466;SDS011;66564;42.482;25.548;2023-04-08T01:47:27;44.38;;;20.52;;
77466;SDS011;66564;42.482;25.548;2023-04-08T01:49:54;47.00;;;21.83;;
77466;SDS011;66564;42.482;25.548;2023-04-08T01:52:21;45.17;;;21.98;;
77466;SDS011;66564;42.482;25.548;2023-04-08T01:54:47;46.85;;;21.67;;
77466;SDS011;66564;42.482;25.548;2023-04-08T01:57:13;40.47;;;20.73;;
77466;SDS011;66564;42.482;25.548;2023-04-08T01:59:43;48.90;;;22.23;;
77466;SDS011;66564;42.482;25.548;2023-04-08T02:02:13;46.05;;;22.30;;
77466;SDS011;66564;42.482;25.548;2023-04-08T02:04:41;41.25;;;20.30;;
77466;SDS011;66564;42.482;25.548;2023-04-08T02:07:06;39.50;;;19.25;;
77466;SDS011;66564;42.482;25.548;2023-04-08T02:09:33;43.38;;;20.30;;
77466;SDS011;66564;42.482;25.548;2023-04-08T02:11:59;42.15;;;21.00;;
77466;SDS011;66564;42.482;25.548;2023-04-08T02:14:25;42.75;;;20.67;;
77466;SDS011;66564;42.482;25.548;2023-04-08T02:16:52;38.28;;;19.83;;
77466;SDS011;66564;42.482;25.548;2023-04-08T02:19:40;41.70;;;20.77;;
77466;SDS011;66564;42.482;25.548;2023-04-08T02:22:13;44.03;;;21.73;;
77466;SDS011;66564;42.482;25.548;2023-04-08T02:24:43;64.35;;;20.52;;
77466;SDS011;66564;42.482;25.548;2023-04-08T02:27:10;40.97;;;21.30;;
77466;SDS011;66564;42.482;25.548;2023-04-08T02:29:37;42.20;;;19.98;;
77466;SDS011;66564;42.482;25.548;2023-04-08T02:32:05;42.13;;;21.25;;
77466;SDS011;66564;42.482;25.548;2023-04-08T02:34:34;46.47;;;22.55;;
77466;SDS011;66564;42.482;25.548;2023-04-08T02:37:03;42.28;;;20.95;;
77466;SDS011;66564;42.482;25.548;2023-04-08T02:39:31;42.90;;;21.10;;
77466;SDS011;66564;42.482;25.548;2023-04-08T02:41:57;37.35;;;19.98;;
77466;SDS011;66564;42.482;25.548;2023-04-08T02:44:23;37.60;;;21.27;;
77466;SDS011;66564;42.482;25.548;2023-04-08T02:46:48;39.55;;;19.80;;
77466;SDS011;66564;42.482;25.548;2023-04-08T02:49:14;48.00;;;23.73;;
77466;SDS011;66564;42.482;25.548;2023-04-08T02:51:40;38.38;;;19.77;;
77466;SDS011;66564;42.482;25.548;2023-04-08T02:54:05;38.75;;;19.45;;
77466;SDS011;66564;42.482;25.548;2023-04-08T02:56:31;40.50;;;20.38;;
77466;SDS011;66564;42.482;25.548;2023-04-08T02:58:56;37.13;;;19.85;;
77466;SDS011;66564;42.482;25.548;2023-04-08T03:01:22;44.78;;;21.58;;
77466;SDS011;66564;42.482;25.548;2023-04-08T03:03:47;43.90;;;21.27;;
77466;SDS011;66564;42.482;25.548;2023-04-08T03:06:13;47.60;;;22.23;;
77466;SDS011;66564;42.482;25.548;2023-04-08T03:08:38;37.92;;;20.42;;
77466;SDS011;66564;42.482;25.548;2023-04-08T03:11:04;40.63;;;21.95;;
77466;SDS011;66564;42.482;25.548;2023-04-08T03:13:29;42.40;;;21.48;;
77466;SDS011;66564;42.482;25.548;2023-04-08T03:15:55;38.47;;;20.50;;
77466;SDS011;66564;42.482;25.548;2023-04-08T03:18:21;36.75;;;20.42;;
77466;SDS011;66564;42.482;25.548;2023-04-08T03:20:47;40.40;;;19.83;;
77466;SDS011;66564;42.482;25.548;2023-04-08T03:23:12;35.05;;;19.00;;
77466;SDS011;66564;42.482;25.548;2023-04-08T03:25:38;39.38;;;20.67;;
77466;SDS011;66564;42.482;25.548;2023-04-08T03:28:03;39.10;;;19.48;;
77466;SDS011;66564;42.482;25.548;2023-04-08T03:30:28;39.05;;;20.33;;
77466;SDS011;66564;42.482;25.548;2023-04-08T03:32:54;41.58;;;20.45;;
77466;SDS011;66564;42.482;25.548;2023-04-08T03:35:20;39.17;;;20.13;;
77466;SDS011;66564;42.482;25.548;2023-04-08T03:37:45;38.67;;;19.65;;
77466;SDS011;66564;42.482;25.548;2023-04-08T03:40:11;40.22;;;19.70;;
77466;SDS011;66564;42.482;25.548;2023-04-08T03:42:37;41.78;;;19.95;;
77466;SDS011;66564;42.482;25.548;2023-04-08T03:45:02;42.42;;;20.63;;
77466;SDS011;66564;42.482;25.548;2023-04-08T03:47:29;39.15;;;19.33;;
77466;SDS011;66564;42.482;25.548;2023-04-08T03:49:54;41.42;;;19.80;;
77466;SDS011;66564;42.482;25.548;2023-04-08T03:52:20;37.65;;;19.77;;
77466;SDS011;66564;42.482;25.548;2023-04-08T03:54:46;35.60;;;18.85;;
77466;SDS011;66564;42.482;25.548;2023-04-08T03:57:11;40.28;;;20.52;;
77466;SDS011;66564;42.482;25.548;2023-04-08T03:59:36;47.58;;;21.50;;
77466;SDS011;66564;42.482;25.548;2023-04-08T04:02:05;42.95;;;20.58;;
77466;SDS011;66564;42.482;25.548;2023-04-08T04:04:30;37.75;;;20.40;;
77466;SDS011;66564;42.482;25.548;2023-04-08T04:06:56;40.75;;;21.40;;
77466;SDS011;66564;42.482;25.548;2023-04-08T04:09:21;39.05;;;20.17;;
77466;SDS011;66564;42.482;25.548;2023-04-08T04:11:47;36.10;;;19.48;;
77466;SDS011;66564;42.482;25.548;2023-04-08T04:14:12;39.95;;;20.33;;
77466;SDS011;66564;42.482;25.548;2023-04-08T04:16:38;41.63;;;20.55;;
77466;SDS011;66564;42.482;25.548;2023-04-08T04:19:03;36.75;;;19.85;;
77466;SDS011;66564;42.482;25.548;2023-04-08T04:21:29;39.33;;;19.92;;
77466;SDS011;66564;42.482;25.548;2023-04-08T04:23:55;41.10;;;20.83;;
77466;SDS011;66564;42.482;25.548;2023-04-08T04:26:20;41.50;;;20.20;;
77466;SDS011;66564;42.482;25.548;2023-04-08T04:28:46;38.25;;;18.83;;
77466;SDS011;66564;42.482;25.548;2023-04-08T04:31:21;36.22;;;19.77;;
77466;SDS011;66564;42.482;25.548;2023-04-08T04:33:50;47.65;;;21.00;;
77466;SDS011;66564;42.482;25.548;2023-04-08T04:36:15;45.10;;;20.73;;
77466;SDS011;66564;42.482;25.548;2023-04-08T04:38:41;54.60;;;22.27;;
77466;SDS011;66564;42.482;25.548;2023-04-08T04:41:07;40.97;;;19.20;;
77466;SDS011;66564;42.482;25.548;2023-04-08T04:43:33;43.28;;;20.20;;
77466;SDS011;66564;42.482;25.548;2023-04-08T04:45:58;42.90;;;19.48;;
77466;SDS011;66564;42.482;25.548;2023-04-08T04:48:24;36.67;;;18.38;;
77466;SDS011;66564;42.482;25.548;2023-04-08T04:50:57;45.38;;;19.70;;
77466;SDS011;66564;42.482;25.548;2023-04-08T04:53:25;40.03;;;21.02;;
77466;SDS011;66564;42.482;25.548;2023-04-08T04:55:51;40.60;;;21.70;;
77466;SDS011;66564;42.482;25.548;2023-04-08T04:58:17;36.97;;;19.13;;
77466;SDS011;66564;42.482;25.548;2023-04-08T05:00:43;38.03;;;19.90;;
77466;SDS011;66564;42.482;25.548;2023-04-08T05:03:09;40.00;;;19.48;;
77466;SDS011;66564;42.482;25.548;2023-04-08T05:05:34;46.60;;;21.50;;
77466;SDS011;66564;42.482;25.548;2023-04-08T05:08:00;42.33;;;20.08;;
77466;SDS011;66564;42.482;25.548;2023-04-08T05:10:26;39.45;;;20.85;;
77466;SDS011;66564;42.482;25.548;2023-04-08T05:12:51;42.22;;;22.40;;
77466;SDS011;66564;42.482;25.548;2023-04-08T05:15:16;47.67;;;22.70;;
77466;SDS011;66564;42.482;25.548;2023-04-08T05:17:42;40.53;;;19.48;;
77466;SDS011;66564;42.482;25.548;2023-04-08T05:20:08;41.17;;;21.10;;
77466;SDS011;66564;42.482;25.548;2023-04-08T05:22:34;41.53;;;21.40;;
77466;SDS011;66564;42.482;25.548;2023-04-08T05:24:59;35.42;;;19.13;;
77466;SDS011;66564;42.482;25.548;2023-04-08T05:27:25;42.00;;;19.42;;
77466;SDS011;66564;42.482;25.548;2023-04-08T05:29:51;37.88;;;20.13;;
77466;SDS011;66564;42.482;25.548;2023-04-08T05:32:16;37.42;;;19.52;;
77466;SDS011;66564;42.482;25.548;2023-04-08T05:34:42;40.13;;;19.70;;
77466;SDS011;66564;42.482;25.548;2023-04-08T05:37:08;46.00;;;19.65;;
77466;SDS011;66564;42.482;25.548;2023-04-08T05:39:34;43.45;;;22.10;;
77466;SDS011;66564;42.482;25.548;2023-04-08T05:42:00;41.63;;;20.58;;
77466;SDS011;66564;42.482;25.548;2023-04-08T05:44:26;39.03;;;19.80;;
77466;SDS011;66564;42.482;25.548;2023-04-08T05:46:51;35.78;;;19.20;;
77466;SDS011;66564;42.482;25.548;2023-04-08T05:49:17;44.28;;;20.60;;
77466;SDS011;66564;42.482;25.548;2023-04-08T05:51:44;38.58;;;19.20;;
77466;SDS011;66564;42.482;25.548;2023-04-08T05:54:10;38.55;;;19.25;;
77466;SDS011;66564;42.482;25.548;2023-04-08T05:56:35;41.97;;;19.90;;
77466;SDS011;66564;42.482;25.548;2023-04-08T05:59:01;44.78;;;21.38;;
77466;SDS011;66564;42.482;25.548;2023-04-08T06:01:26;41.40;;;20.48;;
77466;SDS011;66564;42.482;25.548;2023-04-08T06:03:52;42.05;;;20.77;;
77466;SDS011;66564;42.482;25.548;2023-04-08T06:06:20;41.25;;;20.65;;
77466;SDS011;66564;42.482;25.548;2023-04-08T06:08:45;32.92;;;19.42;;
77466;SDS011;66564;42.482;25.548;2023-04-08T06:11:11;38.47;;;19.58;;
77466;SDS011;66564;42.482;25.548;2023-04-08T06:13:36;41.70;;;19.17;;
77466;SDS011;66564;42.482;25.548;2023-04-08T06:16:12;42.95;;;21.55;;
77466;SDS011;66564;42.482;25.548;2023-04-08T06:18:43;38.83;;;20.20;;
77466;SDS011;66564;42.482;25.548;2023-04-08T06:21:09;44.42;;;18.98;;
77466;SDS011;66564;42.482;25.548;2023-04-08T06:23:35;40.42;;;20.92;;
77466;SDS011;66564;42.482;25.548;2023-04-08T06:26:01;47.67;;;21.70;;
77466;SDS011;66564;42.482;25.548;2023-04-08T06:28:28;50.20;;;22.73;;
77466;SDS011;66564;42.482;25.548;2023-04-08T06:30:54;38.58;;;20.58;;
77466;SDS011;66564;42.482;25.548;2023-04-08T06:33:20;43.95;;;21.13;;
77466;SDS011;66564;42.482;25.548;2023-04-08T06:35:46;45.28;;;23.00;;
77466;SDS011;66564;42.482;25.548;2023-04-08T06:38:11;44.75;;;20.55;;
77466;SDS011;66564;42.482;25.548;2023-04-08T06:40:38;46.75;;;23.35;;
77466;SDS011;66564;42.482;25.548;2023-04-08T06:43:04;45.17;;;22.35;;
77466;SDS011;66564;42.482;25.548;2023-04-08T06:45:31;48.25;;;21.45;;
77466;SDS011;66564;42.482;25.548;2023-04-08T06:47:56;38.90;;;19.70;;
77466;SDS011;66564;42.482;25.548;2023-04-08T06:50:22;36.03;;;17.88;;
77466;SDS011;66564;42.482;25.548;2023-04-08T06:52:47;40.13;;;22.45;;
77466;SDS011;66564;42.482;25.548;2023-04-08T06:55:13;40.00;;;20.75;;
77466;SDS011;66564;42.482;25.548;2023-04-08T06:57:40;44.42;;;20.75;;
77466;SDS011;66564;42.482;25.548;2023-04-08T07:00:05;56.03;;;25.65;;
77466;SDS011;66564;42.482;25.548;2023-04-08T07:02:31;51.53;;;23.92;;
77466;SDS011;66564;42.482;25.548;2023-04-08T07:04:57;47.17;;;22.45;;
77466;SDS011;66564;42.482;25.548;2023-04-08T07:07:23;41.03;;;20.45;;
77466;SDS011;66564;42.482;25.548;2023-04-08T07:09:49;42.42;;;21.02;;
77466;SDS011;66564;42.482;25.548;2023-04-08T07:12:15;43.30;;;22.98;;
77466;SDS011;66564;42.482;25.548;2023-04-08T07:14:41;42.10;;;19.42;;
77466;SDS011;66564;42.482;25.548;2023-04-08T07:17:07;40.55;;;21.40;;
77466;SDS011;66564;42.482;25.548;2023-04-08T07:19:32;42.70;;;20.98;;
77466;SDS011;66564;42.482;25.548;2023-04-08T07:21:58;40.85;;;20.52;;
77466;SDS011;66564;42.482;25.548;2023-04-08T07:24:23;42.58;;;22.33;;
77466;SDS011;66564;42.482;25.548;2023-04-08T07:26:49;38.70;;;19.60;;
77466;SDS011;66564;42.482;25.548;2023-04-08T07:29:15;37.15;;;18.33;;
77466;SDS011;66564;42.482;25.548;2023-04-08T07:31:44;44.72;;;21.25;;
77466;SDS011;66564;42.482;25.548;2023-04-08T07:34:09;36.88;;;19.70;;
77466;SDS011;66564;42.482;25.548;2023-04-08T07:36:36;34.95;;;18.77;;
77466;SDS011;66564;42.482;25.548;2023-04-08T07:39:02;41.08;;;21.73;;
77466;SDS011;66564;42.482;25.548;2023-04-08T07:41:28;41.65;;;20.25;;
77466;SDS011;66564;42.482;25.548;2023-04-08T07:43:53;35.17;;;17.75;;
77466;SDS011;66564;42.482;25.548;2023-04-08T07:46:18;36.38;;;19.38;;
77466;SDS011;66564;42.482;25.548;2023-04-08T07:48:45;39.03;;;19.58;;
77466;SDS011;66564;42.482;25.548;2023-04-08T07:51:10;36.40;;;19.27;;
77466;SDS011;66564;42.482;25.548;2023-04-08T07:53:36;40.10;;;18.85;;
77466;SDS011;66564;42.482;25.548;2023-04-08T07:56:02;40.03;;;20.10;;
77466;SDS011;66564;42.482;25.548;2023-04-08T07:58:34;36.67;;;20.63;;
77466;SDS011;66564;42.482;25.548;2023-04-08T08:00:59;36.50;;;18.60;;
77466;SDS011;66564;42.482;25.548;2023-04-08T08:03:25;35.40;;;19.58;;
77466;SDS011;66564;42.482;25.548;2023-04-08T08:05:51;31.95;;;17.70;;
77466;SDS011;66564;42.482;25.548;2023-04-08T08:08:16;29.00;;;16.35;;
77466;SDS011;66564;42.482;25.548;2023-04-08T08:10:42;33.63;;;17.92;;
77466;SDS011;66564;42.482;25.548;2023-04-08T08:13:07;35.90;;;18.15;;
77466;SDS011;66564;42.482;25.548;2023-04-08T08:15:33;35.45;;;18.70;;
77466;SDS011;66564;42.482;25.548;2023-04-08T08:18:00;31.23;;;18.50;;
77466;SDS011;66564;42.482;25.548;2023-04-08T08:20:26;32.80;;;18.58;;
77466;SDS011;66564;42.482;25.548;2023-04-08T08:22:52;35.20;;;17.88;;
77466;SDS011;66564;42.482;25.548;2023-04-08T08:25:17;26.25;;;15.23;;
77466;SDS011;66564;42.482;25.548;2023-04-08T08:27:43;28.00;;;15.45;;
77466;SDS011;66564;42.482;25.548;2023-04-08T08:30:09;26.73;;;16.63;;
77466;SDS011;66564;42.482;25.548;2023-04-08T08:32:35;32.15;;;17.83;;
77466;SDS011;66564;42.482;25.548;2023-04-08T08:35:01;22.60;;;14.82;;
77466;SDS011;66564;42.482;25.548;2023-04-08T08:37:27;26.38;;;15.30;;
77466;SDS011;66564;42.482;25.548;2023-04-08T08:39:52;25.35;;;14.57;;
77466;SDS011;66564;42.482;25.548;2023-04-08T08:42:21;24.67;;;15.73;;
77466;SDS011;66564;42.482;25.548;2023-04-08T08:44:48;26.98;;;15.27;;
77466;SDS011;66564;42.482;25.548;2023-04-08T08:47:17;28.65;;;16.20;;
77466;SDS011;66564;42.482;25.548;2023-04-08T08:49:45;31.88;;;16.95;;
77466;SDS011;66564;42.482;25.548;2023-04-08T08:52:14;30.88;;;17.50;;
77466;SDS011;66564;42.482;25.548;2023-04-08T08:54:41;27.42;;;16.50;;
77466;SDS011;66564;42.482;25.548;2023-04-08T08:57:17;28.63;;;15.88;;
77466;SDS011;66564;42.482;25.548;2023-04-08T08:59:46;27.45;;;15.30;;
77466;SDS011;66564;42.482;25.548;2023-04-08T09:02:25;30.30;;;16.17;;
77466;SDS011;66564;42.482;25.548;2023-04-08T09:04:58;25.92;;;15.00;;
77466;SDS011;66564;42.482;25.548;2023-04-08T09:07:26;27.30;;;16.30;;
77466;SDS011;66564;42.482;25.548;2023-04-08T09:09:53;32.38;;;16.42;;
77466;SDS011;66564;42.482;25.548;2023-04-08T09:12:20;29.05;;;16.30;;
77466;SDS011;66564;42.482;25.548;2023-04-08T09:14:46;28.88;;;16.85;;
77466;SDS011;66564;42.482;25.548;2023-04-08T09:17:12;28.55;;;17.38;;
77466;SDS011;66564;42.482;25.548;2023-04-08T09:19:38;26.42;;;16.13;;
77466;SDS011;66564;42.482;25.548;2023-04-08T09:22:04;29.38;;;17.23;;
77466;SDS011;66564;42.482;25.548;2023-04-08T09:24:34;38.72;;;19.98;;
77466;SDS011;66564;42.482;25.548;2023-04-08T09:27:04;28.17;;;17.20;;
77466;SDS011;66564;42.482;25.548;2023-04-08T09:29:29;40.05;;;25.80;;
77466;SDS011;66564;42.482;25.548;2023-04-08T09:31:56;31.27;;;18.88;;
77466;SDS011;66564;42.482;25.548;2023-04-08T09:34:23;28.75;;;15.80;;
77466;SDS011;66564;42.482;25.548;2023-04-08T09:36:49;26.95;;;15.35;;
77466;SDS011;66564;42.482;25.548;2023-04-08T09:39:15;24.13;;;15.93;;
77466;SDS011;66564;42.482;25.548;2023-04-08T09:41:41;29.77;;;17.67;;
77466;SDS011;66564;42.482;25.548;2023-04-08T09:44:11;23.42;;;14.38;;
77466;SDS011;66564;42.482;25.548;2023-04-08T09:49:17;26.27;;;15.60;;
77466;SDS011;66564;42.482;25.548;2023-04-08T09:51:58;34.17;;;16.75;;
77466;SDS011;66564;42.482;25.548;2023-04-08T09:54:30;23.95;;;14.88;;
77466;SDS011;66564;42.482;25.548;2023-04-08T09:57:04;25.10;;;15.52;;
77466;SDS011;66564;42.482;25.548;2023-04-08T09:59:34;27.05;;;15.45;;
77466;SDS011;66564;42.482;25.548;2023-04-08T10:02:06;23.90;;;16.40;;
77466;SDS011;66564;42.482;25.548;2023-04-08T10:04:35;27.38;;;17.05;;
77466;SDS011;66564;42.482;25.548;2023-04-08T10:07:05;23.48;;;14.80;;
77466;SDS011;66564;42.482;25.548;2023-04-08T10:09:33;27.60;;;15.27;;
77466;SDS011;66564;42.482;25.548;2023-04-08T10:12:02;26.92;;;16.75;;
77466;SDS011;66564;42.482;25.548;2023-04-08T10:14:28;27.00;;;17.33;;
77466;SDS011;66564;42.482;25.548;2023-04-08T10:19:52;27.08;;;16.42;;
77466;SDS011;66564;42.482;25.548;2023-04-08T10:27:44;23.38;;;14.52;;
77466;SDS011;66564;42.482;25.548;2023-04-08T10:30:55;25.15;;;14.48;;
77466;SDS011;66564;42.482;25.548;2023-04-08T10:32:56;24.35;;;15.45;;
77466;SDS011;66564;42.482;25.548;2023-04-08T10:35:36;25.95;;;14.90;;
77466;SDS011;66564;42.482;25.548;2023-04-08T10:38:10;20.80;;;13.98;;
77466;SDS011;66564;42.482;25.548;2023-04-08T10:40:37;22.55;;;14.63;;
77466;SDS011;66564;42.482;25.548;2023-04-08T10:43:05;20.77;;;14.60;;
77466;SDS011;66564;42.482;25.548;2023-04-08T10:45:34;25.25;;;14.13;;
77466;SDS011;66564;42.482;25.548;2023-04-08T10:48:15;21.10;;;13.80;;
77466;SDS011;66564;42.482;25.548;2023-04-08T10:50:51;20.75;;;13.68;;
77466;SDS011;66564;42.482;25.548;2023-04-08T10:53:33;22.30;;;12.38;;
77466;SDS011;66564;42.482;25.548;2023-04-08T10:56:05;22.52;;;13.48;;
77466;SDS011;66564;42.482;25.548;2023-04-08T10:58:34;20.92;;;12.73;;
77466;SDS011;66564;42.482;25.548;2023-04-08T11:01:07;56.63;;;22.60;;
77466;SDS011;66564;42.482;25.548;2023-04-08T11:03:33;20.02;;;12.82;;
77466;SDS011;66564;42.482;25.548;2023-04-08T11:05:59;22.98;;;12.02;;
77466;SDS011;66564;42.482;25.548;2023-04-08T11:08:30;19.80;;;13.25;;
77466;SDS011;66564;42.482;25.548;2023-04-08T11:10:59;44.10;;;19.65;;
77466;SDS011;66564;42.482;25.548;2023-04-08T11:13:29;23.10;;;13.05;;
77466;SDS011;66564;42.482;25.548;2023-04-08T11:15:55;20.00;;;12.80;;
77466;SDS011;66564;42.482;25.548;2023-04-08T11:18:23;25.75;;;13.77;;
77466;SDS011;66564;42.482;25.548;2023-04-08T11:20:49;22.42;;;14.73;;
77466;SDS011;66564;42.482;25.548;2023-04-08T11:23:15;18.42;;;13.30;;
77466;SDS011;66564;42.482;25.548;2023-04-08T11:25:42;23.15;;;14.40;;
77466;SDS011;66564;42.482;25.548;2023-04-08T11:28:11;20.92;;;13.57;;
77466;SDS011;66564;42.482;25.548;2023-04-08T11:30:37;20.08;;;13.13;;
77466;SDS011;66564;42.482;25.548;2023-04-08T11:33:04;20.77;;;13.05;;
77466;SDS011;66564;42.482;25.548;2023-04-08T11:35:31;15.30;;;10.27;;
77466;SDS011;66564;42.482;25.548;2023-04-08T11:37:57;32.65;;;18.48;;
77466;SDS011;66564;42.482;25.548;2023-04-08T11:40:22;23.80;;;15.05;;
77466;SDS011;66564;42.482;25.548;2023-04-08T11:42:48;20.02;;;12.88;;
77466;SDS011;66564;42.482;25.548;2023-04-08T11:45:15;20.80;;;12.85;;
77466;SDS011;66564;42.482;25.548;2023-04-08T11:47:42;19.30;;;12.57;;
77466;SDS011;66564;42.482;25.548;2023-04-08T11:50:07;21.35;;;13.15;;
77466;SDS011;66564;42.482;25.548;2023-04-08T11:55:06;16.92;;;10.68;;
77466;SDS011;66564;42.482;25.548;2023-04-08T11:57:31;14.60;;;10.43;;
77466;SDS011;66564;42.482;25.548;2023-04-08T11:59:57;15.07;;;11.30;;
77466;SDS011;66564;42.482;25.548;2023-04-08T12:02:22;16.40;;;9.50;;
77466;SDS011;66564;42.482;25.548;2023-04-08T12:04:48;15.32;;;7.95;;
77466;SDS011;66564;42.482;25.548;2023-04-08T12:07:13;12.13;;;8.20;;
77466;SDS011;66564;42.482;25.548;2023-04-08T12:09:39;15.25;;;10.25;;
77466;SDS011;66564;42.482;25.548;2023-04-08T12:12:04;16.20;;;11.77;;
77466;SDS011;66564;42.482;25.548;2023-04-08T12:14:30;19.13;;;12.77;;
77466;SDS011;66564;42.482;25.548;2023-04-08T12:16:56;15.57;;;11.27;;
77466;SDS011;66564;42.482;25.548;2023-04-08T12:19:22;16.42;;;12.05;;
77466;SDS011;66564;42.482;25.548;2023-04-08T12:21:49;17.77;;;10.65;;
77466;SDS011;66564;42.482;25.548;2023-04-08T12:24:14;14.40;;;10.52;;
77466;SDS011;66564;42.482;25.548;2023-04-08T12:26:40;20.75;;;11.00;;
77466;SDS011;66564;42.482;25.548;2023-04-08T12:29:05;19.55;;;12.52;;
77466;SDS011;66564;42.482;25.548;2023-04-08T12:31:34;19.88;;;12.30;;
77466;SDS011;66564;42.482;25.548;2023-04-08T12:34:00;15.98;;;11.27;;
77466;SDS011;66564;42.482;25.548;2023-04-08T12:36:26;17.58;;;12.25;;
77466;SDS011;66564;42.482;25.548;2023-04-08T12:38:51;19.02;;;12.18;;
77466;SDS011;66564;42.482;25.548;2023-04-08T12:41:17;17.58;;;11.98;;
77466;SDS011;66564;42.482;25.548;2023-04-08T12:43:42;17.23;;;10.80;;
77466;SDS011;66564;42.482;25.548;2023-04-08T12:46:08;19.83;;;11.88;;
77466;SDS011;66564;42.482;25.548;2023-04-08T12:48:33;21.90;;;13.05;;
77466;SDS011;66564;42.482;25.548;2023-04-08T12:50:59;17.83;;;11.40;;
77466;SDS011;66564;42.482;25.548;2023-04-08T12:53:25;19.50;;;11.90;;
77466;SDS011;66564;42.482;25.548;2023-04-08T12:55:50;18.95;;;11.93;;
77466;SDS011;66564;42.482;25.548;2023-04-08T12:58:20;39.40;;;18.17;;
77466;SDS011;66564;42.482;25.548;2023-04-08T13:00:47;17.10;;;10.90;;
77466;SDS011;66564;42.482;25.548;2023-04-08T13:03:13;15.43;;;10.77;;
77466;SDS011;66564;42.482;25.548;2023-04-08T13:05:41;16.80;;;11.63;;
77466;SDS011;66564;42.482;25.548;2023-04-08T13:08:06;18.35;;;11.32;;
77466;SDS011;66564;42.482;25.548;2023-04-08T13:10:32;14.95;;;11.73;;
77466;SDS011;66564;42.482;25.548;2023-04-08T13:12:57;19.48;;;12.35;;
77466;SDS011;66564;42.482;25.548;2023-04-08T13:15:24;20.13;;;11.98;;
77466;SDS011;66564;42.482;25.548;2023-04-08T13:17:50;18.40;;;12.52;;
77466;SDS011;66564;42.482;25.548;2023-04-08T13:20:16;19.08;;;13.13;;
77466;SDS011;66564;42.482;25.548;2023-04-08T13:22:41;18.83;;;12.77;;
77466;SDS011;66564;42.482;25.548;2023-04-08T13:25:07;22.13;;;13.77;;
77466;SDS011;66564;42.482;25.548;2023-04-08T13:27:32;19.40;;;11.68;;
77466;SDS011;66564;42.482;25.548;2023-04-08T13:29:58;19.08;;;12.23;;
77466;SDS011;66564;42.482;25.548;2023-04-08T13:32:24;16.38;;;11.25;;
77466;SDS011;66564;42.482;25.548;2023-04-08T13:34:50;16.17;;;10.55;;
77466;SDS011;66564;42.482;25.548;2023-04-08T13:37:15;17.25;;;11.70;;
77466;SDS011;66564;42.482;25.548;2023-04-08T13:39:41;81.55;;;34.53;;
77466;SDS011;66564;42.482;25.548;2023-04-08T13:42:07;21.42;;;12.85;;
77466;SDS011;66564;42.482;25.548;2023-04-08T13:44:32;16.60;;;12.07;;
77466;SDS011;66564;42.482;25.548;2023-04-08T13:47:01;19.13;;;12.57;;
77466;SDS011;66564;42.482;25.548;2023-04-08T13:49:27;19.63;;;13.18;;
77466;SDS011;66564;42.482;25.548;2023-04-08T13:51:52;52.80;;;25.98;;
77466;SDS011;66564;42.482;25.548;2023-04-08T13:54:18;30.33;;;15.98;;
77466;SDS011;66564;42.482;25.548;2023-04-08T13:56:43;25.52;;;14.25;;
77466;SDS011;66564;42.482;25.548;2023-04-08T13:59:09;24.02;;;13.35;;
77466;SDS011;66564;42.482;25.548;2023-04-08T14:01:34;27.55;;;13.57;;
77466;SDS011;66564;42.482;25.548;2023-04-08T14:04:00;21.77;;;13.25;;
77466;SDS011;66564;42.482;25.548;2023-04-08T14:06:25;18.55;;;12.80;;
77466;SDS011;66564;42.482;25.548;2023-04-08T14:08:52;19.45;;;11.52;;
77466;SDS011;66564;42.482;25.548;2023-04-08T14:11:18;25.13;;;13.52;;
77466;SDS011;66564;42.482;25.548;2023-04-08T14:13:45;19.38;;;11.55;;
77466;SDS011;66564;42.482;25.548;2023-04-08T14:16:10;17.20;;;11.40;;
77466;SDS011;66564;42.482;25.548;2023-04-08T14:18:36;20.17;;;11.90;;
77466;SDS011;66564;42.482;25.548;2023-04-08T14:21:02;18.77;;;10.45;;
77466;SDS011;66564;42.482;25.548;2023-04-08T14:23:29;17.52;;;8.88;;
77466;SDS011;66564;42.482;25.548;2023-04-08T14:25:55;16.45;;;9.15;;
77466;SDS011;66564;42.482;25.548;2023-04-08T14:28:20;14.88;;;9.50;;